sensor_id;sensor_type;location;lat;lon;timestamp;P1;durP1;ratioP1;P2;durP2;ratioP2
7983;SDS011;4037;47.980;10.172;2023-08-06T00:01:52;2.87;;;2.40;;
7983;SDS011;4037;47.980;10.172;2023-08-06T00:04:18;3.07;;;2.23;;
7983;SDS011;4037;47.980;10.172;2023-08-06T00:06:44;3.03;;;2.30;;
7983;SDS011;4037;47.980;10.172;2023-08-06T00:09:10;3.30;;;2.17;;
7983;SDS011;4037;47.980;10.172;2023-08-06T00:11:36;2.53;;;2.27;;
7983;SDS011;4037;47.980;10.172;2023-08-06T00:14:02;3.70;;;2.40;;
7983;SDS011;4037;47.980;10.172;2023-08-06T00:16:28;2.47;;;2.17;;
7983;SDS011;4037;47.980;10.172;2023-08-06T00:18:54;2.80;;;1.83;;
7983;SDS011;4037;47.980;10.172;2023-08-06T00:21:20;4.47;;;2.63;;
7983;SDS011;4037;47.980;10.172;2023-08-06T00:23:46;2.70;;;2.00;;
7983;SDS011;4037;47.980;10.172;2023-08-06T00:26:12;3.17;;;2.27;;
7983;SDS011;4037;47.980;10.172;2023-08-06T00:28:38;2.37;;;2.10;;
7983;SDS011;4037;47.980;10.172;2023-08-06T00:31:04;3.70;;;2.40;;
7983;SDS011;4037;47.980;10.172;2023-08-06T00:33:30;2.83;;;2.27;;
7983;SDS011;4037;47.980;10.172;2023-08-06T00:35:56;3.20;;;2.40;;
7983;SDS011;4037;47.980;10.172;2023-08-06T00:38:22;4.10;;;2.37;;
7983;SDS011;4037;47.980;10.172;2023-08-06T00:40:48;3.17;;;2.30;;
7983;SDS011;4037;47.980;10.172;2023-08-06T00:43:14;4.53;;;2.33;;
7983;SDS011;4037;47.980;10.172;2023-08-06T00:45:40;3.60;;;2.20;;
7983;SDS011;4037;47.980;10.172;2023-08-06T00:48:06;2.87;;;2.57;;
7983;SDS011;4037;47.980;10.172;2023-08-06T00:50:32;2.50;;;2.07;;
7983;SDS011;4037;47.980;10.172;2023-08-06T00:52:58;4.53;;;2.80;;
7983;SDS011;4037;47.980;10.172;2023-08-06T00:55:25;3.17;;;2.40;;
7983;SDS011;4037;47.980;10.172;2023-08-06T00:57:51;3.10;;;2.40;;
7983;SDS011;4037;47.980;10.172;2023-08-06T01:00:21;2.93;;;2.20;;
7983;SDS011;4037;47.980;10.172;2023-08-06T01:02:48;3.40;;;2.13;;
7983;SDS011;4037;47.980;10.172;2023-08-06T01:05:14;3.00;;;2.47;;
7983;SDS011;4037;47.980;10.172;2023-08-06T01:10:19;3.07;;;2.60;;
7983;SDS011;4037;47.980;10.172;2023-08-06T01:15:32;3.20;;;2.90;;
7983;SDS011;4037;47.980;10.172;2023-08-06T01:18:01;3.50;;;2.40;;
7983;SDS011;4037;47.980;10.172;2023-08-06T01:20:31;3.37;;;2.73;;
7983;SDS011;4037;47.980;10.172;2023-08-06T01:22:57;2.90;;;2.37;;
7983;SDS011;4037;47.980;10.172;2023-08-06T01:25:25;3.13;;;2.40;;
7983;SDS011;4037;47.980;10.172;2023-08-06T01:27:53;5.20;;;2.80;;
7983;SDS011;4037;47.980;10.172;2023-08-06T01:30:24;3.10;;;2.43;;
7983;SDS011;4037;47.980;10.172;2023-08-06T01:32:53;3.63;;;2.60;;
7983;SDS011;4037;47.980;10.172;2023-08-06T01:35:19;3.20;;;2.90;;
7983;SDS011;4037;47.980;10.172;2023-08-06T01:37:45;2.97;;;2.43;;
7983;SDS011;4037;47.980;10.172;2023-08-06T01:40:12;3.30;;;2.73;;
7983;SDS011;4037;47.980;10.172;2023-08-06T01:42:38;3.60;;;2.77;;
7983;SDS011;4037;47.980;10.172;2023-08-06T01:45:05;3.33;;;2.37;;
7983;SDS011;4037;47.980;10.172;2023-08-06T01:47:31;4.17;;;2.63;;
7983;SDS011;4037;47.980;10.172;2023-08-06T01:49:57;3.30;;;2.40;;
7983;SDS011;4037;47.980;10.172;2023-08-06T01:52:23;3.30;;;2.37;;
7983;SDS011;4037;47.980;10.172;2023-08-06T01:54:49;3.90;;;2.40;;
7983;SDS011;4037;47.980;10.172;2023-08-06T01:57:15;2.10;;;1.90;;
7983;SDS011;4037;47.980;10.172;2023-08-06T01:59:41;3.10;;;2.27;;
7983;SDS011;4037;47.980;10.172;2023-08-06T02:02:07;2.90;;;2.43;;
7983;SDS011;4037;47.980;10.172;2023-08-06T02:04:33;2.70;;;2.50;;
7983;SDS011;4037;47.980;10.172;2023-08-06T02:06:59;2.80;;;2.40;;
7983;SDS011;4037;47.980;10.172;2023-08-06T02:09:25;3.47;;;2.60;;
7983;SDS011;4037;47.980;10.172;2023-08-06T02:11:51;2.50;;;2.07;;
7983;SDS011;4037;47.980;10.172;2023-08-06T02:14:17;2.70;;;2.17;;
7983;SDS011;4037;47.980;10.172;2023-08-06T02:16:43;2.07;;;1.87;;
7983;SDS011;4037;47.980;10.172;2023-08-06T02:19:09;3.67;;;2.63;;
7983;SDS011;4037;47.980;10.172;2023-08-06T02:21:35;2.37;;;2.10;;
7983;SDS011;4037;47.980;10.172;2023-08-06T02:24:01;2.57;;;2.10;;
7983;SDS011;4037;47.980;10.172;2023-08-06T02:26:27;2.47;;;2.20;;
7983;SDS011;4037;47.980;10.172;2023-08-06T02:28:53;3.70;;;1.90;;
7983;SDS011;4037;47.980;10.172;2023-08-06T02:31:19;2.37;;;2.10;;
7983;SDS011;4037;47.980;10.172;2023-08-06T02:33:45;3.27;;;2.07;;
7983;SDS011;4037;47.980;10.172;2023-08-06T02:36:11;2.57;;;2.13;;
7983;SDS011;4037;47.980;10.172;2023-08-06T02:38:37;2.30;;;2.10;;
7983;SDS011;4037;47.980;10.172;2023-08-06T02:41:03;2.63;;;2.33;;
7983;SDS011;4037;47.980;10.172;2023-08-06T02:43:30;2.53;;;2.00;;
7983;SDS011;4037;47.980;10.172;2023-08-06T02:45:56;2.77;;;2.23;;
7983;SDS011;4037;47.980;10.172;2023-08-06T02:48:23;2.80;;;2.30;;
7983;SDS011;4037;47.980;10.172;2023-08-06T02:50:49;3.87;;;2.27;;
7983;SDS011;4037;47.980;10.172;2023-08-06T02:53:15;2.17;;;1.97;;
7983;SDS011;4037;47.980;10.172;2023-08-06T02:55:45;2.30;;;2.10;;
7983;SDS011;4037;47.980;10.172;2023-08-06T02:58:14;4.77;;;2.57;;
7983;SDS011;4037;47.980;10.172;2023-08-06T03:00:40;2.80;;;2.40;;
7983;SDS011;4037;47.980;10.172;2023-08-06T03:03:07;2.50;;;2.30;;
7983;SDS011;4037;47.980;10.172;2023-08-06T03:05:33;2.77;;;2.00;;
7983;SDS011;4037;47.980;10.172;2023-08-06T03:07:59;3.67;;;2.00;;
7983;SDS011;4037;47.980;10.172;2023-08-06T03:10:25;4.53;;;2.80;;
7983;SDS011;4037;47.980;10.172;2023-08-06T03:12:51;3.93;;;2.43;;
7983;SDS011;4037;47.980;10.172;2023-08-06T03:15:17;1.93;;;1.67;;
7983;SDS011;4037;47.980;10.172;2023-08-06T03:17:43;2.30;;;1.97;;
7983;SDS011;4037;47.980;10.172;2023-08-06T03:20:09;3.57;;;2.23;;
7983;SDS011;4037;47.980;10.172;2023-08-06T03:22:36;2.53;;;2.27;;
7983;SDS011;4037;47.980;10.172;2023-08-06T03:25:02;3.20;;;2.50;;
7983;SDS011;4037;47.980;10.172;2023-08-06T03:27:28;2.83;;;2.43;;
7983;SDS011;4037;47.980;10.172;2023-08-06T03:29:54;2.10;;;1.90;;
7983;SDS011;4037;47.980;10.172;2023-08-06T03:32:20;3.27;;;2.00;;
7983;SDS011;4037;47.980;10.172;2023-08-06T03:34:46;3.17;;;2.03;;
7983;SDS011;4037;47.980;10.172;2023-08-06T03:37:12;3.50;;;2.17;;
7983;SDS011;4037;47.980;10.172;2023-08-06T03:39:38;4.83;;;2.30;;
7983;SDS011;4037;47.980;10.172;2023-08-06T03:42:04;2.57;;;2.07;;
7983;SDS011;4037;47.980;10.172;2023-08-06T03:44:30;2.43;;;2.23;;
7983;SDS011;4037;47.980;10.172;2023-08-06T03:46:56;2.50;;;2.00;;
7983;SDS011;4037;47.980;10.172;2023-08-06T03:49:22;3.83;;;2.23;;
7983;SDS011;4037;47.980;10.172;2023-08-06T03:51:48;2.20;;;2.00;;
7983;SDS011;4037;47.980;10.172;2023-08-06T03:54:14;2.80;;;2.53;;
7983;SDS011;4037;47.980;10.172;2023-08-06T03:56:40;3.33;;;2.07;;
7983;SDS011;4037;47.980;10.172;2023-08-06T03:59:06;4.20;;;2.13;;
7983;SDS011;4037;47.980;10.172;2023-08-06T04:01:32;2.90;;;2.00;;
7983;SDS011;4037;47.980;10.172;2023-08-06T04:03:58;3.07;;;2.17;;
7983;SDS011;4037;47.980;10.172;2023-08-06T04:06:24;3.17;;;1.90;;
7983;SDS011;4037;47.980;10.172;2023-08-06T04:08:50;4.37;;;2.30;;
7983;SDS011;4037;47.980;10.172;2023-08-06T04:11:16;2.20;;;2.00;;
7983;SDS011;4037;47.980;10.172;2023-08-06T04:13:43;2.30;;;2.10;;
7983;SDS011;4037;47.980;10.172;2023-08-06T04:16:09;2.13;;;1.80;;
7983;SDS011;4037;47.980;10.172;2023-08-06T04:18:35;3.00;;;2.70;;
7983;SDS011;4037;47.980;10.172;2023-08-06T04:21:01;2.67;;;2.17;;
7983;SDS011;4037;47.980;10.172;2023-08-06T04:23:28;3.73;;;2.40;;
7983;SDS011;4037;47.980;10.172;2023-08-06T04:25:57;3.30;;;2.00;;
7983;SDS011;4037;47.980;10.172;2023-08-06T04:28:23;2.73;;;2.07;;
7983;SDS011;4037;47.980;10.172;2023-08-06T04:30:49;2.43;;;1.93;;
7983;SDS011;4037;47.980;10.172;2023-08-06T04:33:15;2.40;;;1.60;;
7983;SDS011;4037;47.980;10.172;2023-08-06T04:35:41;1.80;;;1.70;;
7983;SDS011;4037;47.980;10.172;2023-08-06T04:38:07;2.63;;;1.90;;
7983;SDS011;4037;47.980;10.172;2023-08-06T04:40:34;2.73;;;1.90;;
7983;SDS011;4037;47.980;10.172;2023-08-06T04:43:00;2.40;;;1.67;;
7983;SDS011;4037;47.980;10.172;2023-08-06T04:45:26;2.63;;;2.17;;
7983;SDS011;4037;47.980;10.172;2023-08-06T04:47:52;2.80;;;1.80;;
7983;SDS011;4037;47.980;10.172;2023-08-06T04:50:19;2.27;;;1.77;;
7983;SDS011;4037;47.980;10.172;2023-08-06T04:52:44;2.53;;;1.70;;
7983;SDS011;4037;47.980;10.172;2023-08-06T04:55:11;2.10;;;1.73;;
7983;SDS011;4037;47.980;10.172;2023-08-06T04:57:37;2.37;;;1.50;;
7983;SDS011;4037;47.980;10.172;2023-08-06T05:00:03;2.30;;;1.70;;
7983;SDS011;4037;47.980;10.172;2023-08-06T05:02:29;4.37;;;1.93;;
7983;SDS011;4037;47.980;10.172;2023-08-06T05:04:57;2.20;;;1.53;;
7983;SDS011;4037;47.980;10.172;2023-08-06T05:07:23;2.87;;;1.63;;
7983;SDS011;4037;47.980;10.172;2023-08-06T05:09:49;1.93;;;1.60;;
7983;SDS011;4037;47.980;10.172;2023-08-06T05:12:15;1.80;;;1.50;;
7983;SDS011;4037;47.980;10.172;2023-08-06T05:14:41;2.30;;;1.57;;
7983;SDS011;4037;47.980;10.172;2023-08-06T05:17:07;1.90;;;1.47;;
7983;SDS011;4037;47.980;10.172;2023-08-06T05:19:33;1.80;;;1.70;;
7983;SDS011;4037;47.980;10.172;2023-08-06T05:21:59;2.00;;;1.73;;
7983;SDS011;4037;47.980;10.172;2023-08-06T05:24:26;1.90;;;1.10;;
7983;SDS011;4037;47.980;10.172;2023-08-06T05:26:52;2.00;;;1.53;;
7983;SDS011;4037;47.980;10.172;2023-08-06T05:29:18;2.00;;;1.37;;
7983;SDS011;4037;47.980;10.172;2023-08-06T05:31:44;1.50;;;1.40;;
7983;SDS011;4037;47.980;10.172;2023-08-06T05:34:10;1.90;;;1.40;;
7983;SDS011;4037;47.980;10.172;2023-08-06T05:36:36;3.30;;;2.27;;
7983;SDS011;4037;47.980;10.172;2023-08-06T05:39:02;1.50;;;1.40;;
7983;SDS011;4037;47.980;10.172;2023-08-06T05:41:28;2.97;;;1.40;;
7983;SDS011;4037;47.980;10.172;2023-08-06T05:43:54;2.70;;;1.40;;
7983;SDS011;4037;47.980;10.172;2023-08-06T05:46:20;2.40;;;1.53;;
7983;SDS011;4037;47.980;10.172;2023-08-06T05:48:46;2.63;;;1.33;;
7983;SDS011;4037;47.980;10.172;2023-08-06T05:51:12;4.13;;;1.27;;
7983;SDS011;4037;47.980;10.172;2023-08-06T05:53:39;5.53;;;1.40;;
7983;SDS011;4037;47.980;10.172;2023-08-06T05:56:05;1.70;;;1.40;;
7983;SDS011;4037;47.980;10.172;2023-08-06T05:58:31;3.53;;;1.33;;
7983;SDS011;4037;47.980;10.172;2023-08-06T06:00:57;1.90;;;1.17;;
7983;SDS011;4037;47.980;10.172;2023-08-06T06:03:23;4.20;;;1.20;;
7983;SDS011;4037;47.980;10.172;2023-08-06T06:05:49;1.50;;;1.20;;
7983;SDS011;4037;47.980;10.172;2023-08-06T06:08:15;1.30;;;1.10;;
7983;SDS011;4037;47.980;10.172;2023-08-06T06:10:41;2.77;;;1.40;;
7983;SDS011;4037;47.980;10.172;2023-08-06T06:13:07;2.53;;;1.33;;
7983;SDS011;4037;47.980;10.172;2023-08-06T06:15:33;1.70;;;1.10;;
7983;SDS011;4037;47.980;10.172;2023-08-06T06:17:59;1.90;;;1.30;;
7983;SDS011;4037;47.980;10.172;2023-08-06T06:20:25;2.07;;;1.27;;
7983;SDS011;4037;47.980;10.172;2023-08-06T06:22:51;1.93;;;1.30;;
7983;SDS011;4037;47.980;10.172;2023-08-06T06:25:17;1.20;;;0.90;;
7983;SDS011;4037;47.980;10.172;2023-08-06T06:27:43;1.30;;;1.10;;
7983;SDS011;4037;47.980;10.172;2023-08-06T06:30:10;1.80;;;1.17;;
7983;SDS011;4037;47.980;10.172;2023-08-06T06:32:37;0.90;;;0.77;;
7983;SDS011;4037;47.980;10.172;2023-08-06T06:35:05;2.13;;;0.97;;
7983;SDS011;4037;47.980;10.172;2023-08-06T06:37:31;1.73;;;0.97;;
7983;SDS011;4037;47.980;10.172;2023-08-06T06:39:57;1.43;;;0.93;;
7983;SDS011;4037;47.980;10.172;2023-08-06T06:42:23;1.40;;;1.10;;
7983;SDS011;4037;47.980;10.172;2023-08-06T06:44:48;2.43;;;0.93;;
7983;SDS011;4037;47.980;10.172;2023-08-06T06:47:14;1.50;;;1.00;;
7983;SDS011;4037;47.980;10.172;2023-08-06T06:49:40;3.10;;;1.13;;
7983;SDS011;4037;47.980;10.172;2023-08-06T06:52:06;3.07;;;0.90;;
7983;SDS011;4037;47.980;10.172;2023-08-06T06:54:33;1.73;;;0.80;;
7983;SDS011;4037;47.980;10.172;2023-08-06T06:56:59;1.20;;;1.00;;
7983;SDS011;4037;47.980;10.172;2023-08-06T06:59:25;0.80;;;0.80;;
7983;SDS011;4037;47.980;10.172;2023-08-06T07:01:50;0.90;;;0.90;;
7983;SDS011;4037;47.980;10.172;2023-08-06T07:04:16;0.63;;;0.63;;
7983;SDS011;4037;47.980;10.172;2023-08-06T07:06:43;0.60;;;0.60;;
7983;SDS011;4037;47.980;10.172;2023-08-06T07:09:09;0.83;;;0.80;;
7983;SDS011;4037;47.980;10.172;2023-08-06T07:11:35;0.70;;;0.70;;
7983;SDS011;4037;47.980;10.172;2023-08-06T07:14:01;0.70;;;0.70;;
7983;SDS011;4037;47.980;10.172;2023-08-06T07:16:27;1.27;;;0.70;;
7983;SDS011;4037;47.980;10.172;2023-08-06T07:18:54;0.60;;;0.60;;
7983;SDS011;4037;47.980;10.172;2023-08-06T07:21:20;0.87;;;0.80;;
7983;SDS011;4037;47.980;10.172;2023-08-06T07:23:46;0.80;;;0.80;;
7983;SDS011;4037;47.980;10.172;2023-08-06T07:26:14;0.83;;;0.57;;
7983;SDS011;4037;47.980;10.172;2023-08-06T07:28:40;0.60;;;0.60;;
7983;SDS011;4037;47.980;10.172;2023-08-06T07:31:06;1.27;;;0.60;;
7983;SDS011;4037;47.980;10.172;2023-08-06T07:33:32;0.70;;;0.50;;
7983;SDS011;4037;47.980;10.172;2023-08-06T07:35:58;0.43;;;0.43;;
7983;SDS011;4037;47.980;10.172;2023-08-06T07:38:24;0.50;;;0.50;;
7983;SDS011;4037;47.980;10.172;2023-08-06T07:40:51;0.50;;;0.50;;
7983;SDS011;4037;47.980;10.172;2023-08-06T07:43:17;0.50;;;0.50;;
7983;SDS011;4037;47.980;10.172;2023-08-06T07:45:43;2.30;;;0.60;;
7983;SDS011;4037;47.980;10.172;2023-08-06T07:48:09;1.23;;;0.70;;
7983;SDS011;4037;47.980;10.172;2023-08-06T07:50:35;0.60;;;0.60;;
7983;SDS011;4037;47.980;10.172;2023-08-06T07:53:01;0.80;;;0.80;;
7983;SDS011;4037;47.980;10.172;2023-08-06T07:55:27;0.83;;;0.70;;
7983;SDS011;4037;47.980;10.172;2023-08-06T07:57:53;1.00;;;0.60;;
7983;SDS011;4037;47.980;10.172;2023-08-06T08:00:19;1.33;;;0.70;;
7983;SDS011;4037;47.980;10.172;2023-08-06T08:02:45;0.70;;;0.70;;
7983;SDS011;4037;47.980;10.172;2023-08-06T08:05:11;0.70;;;0.70;;
7983;SDS011;4037;47.980;10.172;2023-08-06T08:07:37;0.73;;;0.70;;
7983;SDS011;4037;47.980;10.172;2023-08-06T08:10:03;1.10;;;0.70;;
7983;SDS011;4037;47.980;10.172;2023-08-06T08:12:30;0.70;;;0.70;;
7983;SDS011;4037;47.980;10.172;2023-08-06T08:14:56;1.37;;;0.67;;
7983;SDS011;4037;47.980;10.172;2023-08-06T08:17:22;1.10;;;0.63;;
7983;SDS011;4037;47.980;10.172;2023-08-06T08:19:48;0.50;;;0.50;;
7983;SDS011;4037;47.980;10.172;2023-08-06T08:22:14;0.77;;;0.50;;
7983;SDS011;4037;47.980;10.172;2023-08-06T08:24:40;0.50;;;0.50;;
7983;SDS011;4037;47.980;10.172;2023-08-06T08:27:06;0.50;;;0.50;;
7983;SDS011;4037;47.980;10.172;2023-08-06T08:29:32;1.00;;;0.50;;
7983;SDS011;4037;47.980;10.172;2023-08-06T08:31:58;0.67;;;0.50;;
7983;SDS011;4037;47.980;10.172;2023-08-06T08:34:24;0.93;;;0.67;;
7983;SDS011;4037;47.980;10.172;2023-08-06T08:36:50;0.60;;;0.60;;
7983;SDS011;4037;47.980;10.172;2023-08-06T08:39:16;0.40;;;0.40;;
7983;SDS011;4037;47.980;10.172;2023-08-06T08:41:42;0.60;;;0.60;;
7983;SDS011;4037;47.980;10.172;2023-08-06T08:44:08;0.60;;;0.60;;
7983;SDS011;4037;47.980;10.172;2023-08-06T08:46:38;0.50;;;0.50;;
7983;SDS011;4037;47.980;10.172;2023-08-06T08:49:05;0.60;;;0.60;;
7983;SDS011;4037;47.980;10.172;2023-08-06T08:51:32;2.23;;;0.83;;
7983;SDS011;4037;47.980;10.172;2023-08-06T08:54:02;1.70;;;0.50;;
7983;SDS011;4037;47.980;10.172;2023-08-06T08:56:28;1.13;;;0.60;;
7983;SDS011;4037;47.980;10.172;2023-08-06T08:58:54;0.57;;;0.50;;
7983;SDS011;4037;47.980;10.172;2023-08-06T09:01:23;1.17;;;0.50;;
7983;SDS011;4037;47.980;10.172;2023-08-06T09:03:50;1.43;;;0.53;;
7983;SDS011;4037;47.980;10.172;2023-08-06T09:06:17;1.70;;;0.50;;
7983;SDS011;4037;47.980;10.172;2023-08-06T09:08:54;0.60;;;0.60;;
7983;SDS011;4037;47.980;10.172;2023-08-06T09:11:22;0.53;;;0.53;;
7983;SDS011;4037;47.980;10.172;2023-08-06T09:13:49;0.60;;;0.60;;
7983;SDS011;4037;47.980;10.172;2023-08-06T09:16:15;2.67;;;0.60;;
7983;SDS011;4037;47.980;10.172;2023-08-06T09:18:41;0.60;;;0.60;;
7983;SDS011;4037;47.980;10.172;2023-08-06T09:21:09;0.60;;;0.60;;
7983;SDS011;4037;47.980;10.172;2023-08-06T09:23:38;0.60;;;0.60;;
7983;SDS011;4037;47.980;10.172;2023-08-06T09:26:04;0.63;;;0.63;;
7983;SDS011;4037;47.980;10.172;2023-08-06T09:28:37;1.63;;;0.60;;
7983;SDS011;4037;47.980;10.172;2023-08-06T09:31:08;0.83;;;0.70;;
7983;SDS011;4037;47.980;10.172;2023-08-06T09:33:35;0.67;;;0.60;;
7983;SDS011;4037;47.980;10.172;2023-08-06T09:36:08;0.50;;;0.50;;
7983;SDS011;4037;47.980;10.172;2023-08-06T09:38:37;0.40;;;0.40;;
7983;SDS011;4037;47.980;10.172;2023-08-06T09:41:04;0.53;;;0.53;;
7983;SDS011;4037;47.980;10.172;2023-08-06T09:43:38;0.50;;;0.50;;
7983;SDS011;4037;47.980;10.172;2023-08-06T09:46:10;1.20;;;0.67;;
7983;SDS011;4037;47.980;10.172;2023-08-06T09:48:38;0.53;;;0.50;;
7983;SDS011;4037;47.980;10.172;2023-08-06T09:51:04;1.23;;;0.60;;
7983;SDS011;4037;47.980;10.172;2023-08-06T09:53:31;0.67;;;0.50;;
7983;SDS011;4037;47.980;10.172;2023-08-06T09:55:59;0.83;;;0.70;;
7983;SDS011;4037;47.980;10.172;2023-08-06T09:58:25;0.50;;;0.50;;
7983;SDS011;4037;47.980;10.172;2023-08-06T10:00:51;0.50;;;0.50;;
7983;SDS011;4037;47.980;10.172;2023-08-06T10:03:17;0.50;;;0.50;;
7983;SDS011;4037;47.980;10.172;2023-08-06T10:05:44;0.57;;;0.53;;
7983;SDS011;4037;47.980;10.172;2023-08-06T10:08:10;0.60;;;0.50;;
7983;SDS011;4037;47.980;10.172;2023-08-06T10:10:36;0.50;;;0.50;;
7983;SDS011;4037;47.980;10.172;2023-08-06T10:13:02;0.40;;;0.40;;
7983;SDS011;4037;47.980;10.172;2023-08-06T10:15:30;0.50;;;0.50;;
7983;SDS011;4037;47.980;10.172;2023-08-06T10:17:57;0.67;;;0.60;;
7983;SDS011;4037;47.980;10.172;2023-08-06T10:20:23;0.50;;;0.50;;
7983;SDS011;4037;47.980;10.172;2023-08-06T10:23:02;1.43;;;0.80;;
7983;SDS011;4037;47.980;10.172;2023-08-06T10:25:32;0.50;;;0.50;;
7983;SDS011;4037;47.980;10.172;2023-08-06T10:27:58;0.70;;;0.70;;
7983;SDS011;4037;47.980;10.172;2023-08-06T10:30:31;1.20;;;0.60;;
7983;SDS011;4037;47.980;10.172;2023-08-06T10:33:02;0.63;;;0.60;;
7983;SDS011;4037;47.980;10.172;2023-08-06T10:35:29;0.60;;;0.60;;
7983;SDS011;4037;47.980;10.172;2023-08-06T10:38:43;0.40;;;0.40;;
7983;SDS011;4037;47.980;10.172;2023-08-06T10:41:02;0.93;;;0.50;;
7983;SDS011;4037;47.980;10.172;2023-08-06T10:45:58;1.80;;;0.50;;
7983;SDS011;4037;47.980;10.172;2023-08-06T10:50:56;0.50;;;0.50;;
7983;SDS011;4037;47.980;10.172;2023-08-06T10:53:22;0.50;;;0.50;;
7983;SDS011;4037;47.980;10.172;2023-08-06T10:55:48;0.40;;;0.40;;
7983;SDS011;4037;47.980;10.172;2023-08-06T10:58:15;0.40;;;0.40;;
7983;SDS011;4037;47.980;10.172;2023-08-06T11:00:41;0.70;;;0.50;;
7983;SDS011;4037;47.980;10.172;2023-08-06T11:03:08;0.60;;;0.60;;
7983;SDS011;4037;47.980;10.172;2023-08-06T11:05:35;0.50;;;0.50;;
7983;SDS011;4037;47.980;10.172;2023-08-06T11:08:01;0.40;;;0.40;;
7983;SDS011;4037;47.980;10.172;2023-08-06T11:10:27;0.40;;;0.40;;
7983;SDS011;4037;47.980;10.172;2023-08-06T11:12:53;0.60;;;0.60;;
7983;SDS011;4037;47.980;10.172;2023-08-06T11:15:22;0.50;;;0.50;;
7983;SDS011;4037;47.980;10.172;2023-08-06T11:17:48;0.53;;;0.53;;
7983;SDS011;4037;47.980;10.172;2023-08-06T11:20:15;0.50;;;0.50;;
7983;SDS011;4037;47.980;10.172;2023-08-06T11:22:42;0.40;;;0.40;;
7983;SDS011;4037;47.980;10.172;2023-08-06T11:25:08;0.50;;;0.50;;
7983;SDS011;4037;47.980;10.172;2023-08-06T11:27:34;0.50;;;0.50;;
7983;SDS011;4037;47.980;10.172;2023-08-06T11:30:00;0.50;;;0.50;;
7983;SDS011;4037;47.980;10.172;2023-08-06T11:32:26;0.60;;;0.60;;
7983;SDS011;4037;47.980;10.172;2023-08-06T11:34:53;0.50;;;0.50;;
7983;SDS011;4037;47.980;10.172;2023-08-06T11:37:22;1.13;;;0.50;;
7983;SDS011;4037;47.980;10.172;2023-08-06T11:39:51;0.40;;;0.40;;
7983;SDS011;4037;47.980;10.172;2023-08-06T11:42:18;0.43;;;0.43;;
7983;SDS011;4037;47.980;10.172;2023-08-06T11:44:44;0.60;;;0.60;;
7983;SDS011;4037;47.980;10.172;2023-08-06T11:47:12;0.67;;;0.60;;
7983;SDS011;4037;47.980;10.172;2023-08-06T11:52:24;0.60;;;0.60;;
7983;SDS011;4037;47.980;10.172;2023-08-06T11:55:00;0.50;;;0.50;;
7983;SDS011;4037;47.980;10.172;2023-08-06T11:57:35;1.17;;;0.60;;
7983;SDS011;4037;47.980;10.172;2023-08-06T12:00:02;0.60;;;0.60;;
7983;SDS011;4037;47.980;10.172;2023-08-06T12:02:30;0.60;;;0.60;;
7983;SDS011;4037;47.980;10.172;2023-08-06T12:04:59;0.57;;;0.50;;
7983;SDS011;4037;47.980;10.172;2023-08-06T12:07:29;1.40;;;0.70;;
7983;SDS011;4037;47.980;10.172;2023-08-06T12:09:55;0.50;;;0.50;;
7983;SDS011;4037;47.980;10.172;2023-08-06T12:12:22;0.50;;;0.50;;
7983;SDS011;4037;47.980;10.172;2023-08-06T12:14:48;0.50;;;0.50;;
7983;SDS011;4037;47.980;10.172;2023-08-06T12:17:14;1.23;;;0.60;;
7983;SDS011;4037;47.980;10.172;2023-08-06T12:19:40;0.50;;;0.50;;
7983;SDS011;4037;47.980;10.172;2023-08-06T12:22:06;0.77;;;0.50;;
7983;SDS011;4037;47.980;10.172;2023-08-06T12:24:32;0.50;;;0.50;;
7983;SDS011;4037;47.980;10.172;2023-08-06T12:26:58;0.47;;;0.47;;
7983;SDS011;4037;47.980;10.172;2023-08-06T12:29:25;0.40;;;0.40;;
7983;SDS011;4037;47.980;10.172;2023-08-06T12:31:51;0.50;;;0.50;;
7983;SDS011;4037;47.980;10.172;2023-08-06T12:34:17;0.50;;;0.50;;
7983;SDS011;4037;47.980;10.172;2023-08-06T12:36:43;1.23;;;0.60;;
7983;SDS011;4037;47.980;10.172;2023-08-06T12:39:09;0.40;;;0.40;;
7983;SDS011;4037;47.980;10.172;2023-08-06T12:41:35;0.53;;;0.53;;
7983;SDS011;4037;47.980;10.172;2023-08-06T12:44:01;0.40;;;0.40;;
7983;SDS011;4037;47.980;10.172;2023-08-06T12:46:27;0.67;;;0.60;;
7983;SDS011;4037;47.980;10.172;2023-08-06T12:48:53;0.50;;;0.50;;
7983;SDS011;4037;47.980;10.172;2023-08-06T12:51:19;0.50;;;0.50;;
7983;SDS011;4037;47.980;10.172;2023-08-06T12:53:45;0.40;;;0.40;;
7983;SDS011;4037;47.980;10.172;2023-08-06T12:56:12;0.50;;;0.50;;
7983;SDS011;4037;47.980;10.172;2023-08-06T12:58:38;0.77;;;0.63;;
7983;SDS011;4037;47.980;10.172;2023-08-06T13:01:05;0.50;;;0.50;;
7983;SDS011;4037;47.980;10.172;2023-08-06T13:03:31;0.50;;;0.50;;
7983;SDS011;4037;47.980;10.172;2023-08-06T13:05:57;0.60;;;0.60;;
7983;SDS011;4037;47.980;10.172;2023-08-06T13:08:23;0.60;;;0.60;;
7983;SDS011;4037;47.980;10.172;2023-08-06T13:10:49;0.60;;;0.60;;
7983;SDS011;4037;47.980;10.172;2023-08-06T13:13:15;0.77;;;0.50;;
7983;SDS011;4037;47.980;10.172;2023-08-06T13:15:41;0.50;;;0.50;;
7983;SDS011;4037;47.980;10.172;2023-08-06T13:18:07;0.50;;;0.50;;
7983;SDS011;4037;47.980;10.172;2023-08-06T13:20:33;0.70;;;0.60;;
7983;SDS011;4037;47.980;10.172;2023-08-06T13:22:59;0.60;;;0.60;;
7983;SDS011;4037;47.980;10.172;2023-08-06T13:25:26;0.50;;;0.50;;
7983;SDS011;4037;47.980;10.172;2023-08-06T13:27:53;0.50;;;0.50;;
7983;SDS011;4037;47.980;10.172;2023-08-06T13:30:19;0.70;;;0.53;;
7983;SDS011;4037;47.980;10.172;2023-08-06T13:32:48;0.60;;;0.60;;
7983;SDS011;4037;47.980;10.172;2023-08-06T13:35:14;0.50;;;0.50;;
7983;SDS011;4037;47.980;10.172;2023-08-06T13:37:40;0.50;;;0.50;;
7983;SDS011;4037;47.980;10.172;2023-08-06T13:40:06;0.50;;;0.50;;
7983;SDS011;4037;47.980;10.172;2023-08-06T13:42:32;0.60;;;0.60;;
7983;SDS011;4037;47.980;10.172;2023-08-06T13:44:58;0.50;;;0.50;;
7983;SDS011;4037;47.980;10.172;2023-08-06T13:47:28;0.40;;;0.40;;
7983;SDS011;4037;47.980;10.172;2023-08-06T13:49:54;0.40;;;0.40;;
7983;SDS011;4037;47.980;10.172;2023-08-06T13:52:20;0.50;;;0.50;;
7983;SDS011;4037;47.980;10.172;2023-08-06T13:54:46;1.00;;;0.60;;
7983;SDS011;4037;47.980;10.172;2023-08-06T13:57:12;0.60;;;0.60;;
7983;SDS011;4037;47.980;10.172;2023-08-06T13:59:38;0.40;;;0.40;;
7983;SDS011;4037;47.980;10.172;2023-08-06T14:02:04;0.50;;;0.50;;
7983;SDS011;4037;47.980;10.172;2023-08-06T14:04:30;0.50;;;0.50;;
7983;SDS011;4037;47.980;10.172;2023-08-06T14:06:56;0.57;;;0.50;;
7983;SDS011;4037;47.980;10.172;2023-08-06T14:09:22;1.83;;;0.60;;
7983;SDS011;4037;47.980;10.172;2023-08-06T14:11:48;0.50;;;0.50;;
7983;SDS011;4037;47.980;10.172;2023-08-06T14:14:14;0.50;;;0.50;;
7983;SDS011;4037;47.980;10.172;2023-08-06T14:16:40;0.50;;;0.50;;
7983;SDS011;4037;47.980;10.172;2023-08-06T14:19:06;0.40;;;0.40;;
7983;SDS011;4037;47.980;10.172;2023-08-06T14:21:32;0.53;;;0.50;;
7983;SDS011;4037;47.980;10.172;2023-08-06T14:23:58;0.40;;;0.40;;
7983;SDS011;4037;47.980;10.172;2023-08-06T14:26:24;0.40;;;0.40;;
7983;SDS011;4037;47.980;10.172;2023-08-06T14:28:50;0.40;;;0.40;;
7983;SDS011;4037;47.980;10.172;2023-08-06T14:31:19;0.53;;;0.53;;
7983;SDS011;4037;47.980;10.172;2023-08-06T14:33:46;1.50;;;0.50;;
7983;SDS011;4037;47.980;10.172;2023-08-06T14:36:12;0.50;;;0.50;;
7983;SDS011;4037;47.980;10.172;2023-08-06T14:38:38;1.60;;;0.50;;
7983;SDS011;4037;47.980;10.172;2023-08-06T14:41:04;0.60;;;0.60;;
7983;SDS011;4037;47.980;10.172;2023-08-06T14:43:31;0.50;;;0.50;;
7983;SDS011;4037;47.980;10.172;2023-08-06T14:45:57;2.17;;;0.70;;
7983;SDS011;4037;47.980;10.172;2023-08-06T14:48:23;0.50;;;0.50;;
7983;SDS011;4037;47.980;10.172;2023-08-06T14:50:49;0.50;;;0.50;;
7983;SDS011;4037;47.980;10.172;2023-08-06T14:53:15;0.50;;;0.50;;
7983;SDS011;4037;47.980;10.172;2023-08-06T14:55:41;0.50;;;0.50;;
7983;SDS011;4037;47.980;10.172;2023-08-06T14:58:07;0.53;;;0.53;;
7983;SDS011;4037;47.980;10.172;2023-08-06T15:00:33;0.73;;;0.73;;
7983;SDS011;4037;47.980;10.172;2023-08-06T15:02:59;0.70;;;0.60;;
7983;SDS011;4037;47.980;10.172;2023-08-06T15:05:25;3.00;;;0.60;;
7983;SDS011;4037;47.980;10.172;2023-08-06T15:07:51;0.50;;;0.50;;
7983;SDS011;4037;47.980;10.172;2023-08-06T15:10:18;0.50;;;0.50;;